sensor_id;sensor_type;location;lat;lon;timestamp;pressure;altitude;pressure_sealevel;temperature;humidity
14882;BME280;7533;51.278;12.588;2023-02-12T00:01:48;101941.59;;;22.65;55.44
14882;BME280;7533;51.278;12.588;2023-02-12T00:06:51;101943.31;;;22.66;55.47
14882;BME280;7533;51.278;12.588;2023-02-12T00:11:54;101947.78;;;22.67;55.44
14882;BME280;7533;51.278;12.588;2023-02-12T00:16:59;101948.59;;;22.69;55.40
14882;BME280;7533;51.278;12.588;2023-02-12T00:22:02;101943.91;;;22.73;55.43
14882;BME280;7533;51.278;12.588;2023-02-12T00:27:04;101949.03;;;22.60;55.44
14882;BME280;7533;51.278;12.588;2023-02-12T00:32:09;101940.84;;;22.61;55.53
14882;BME280;7533;51.278;12.588;2023-02-12T00:37:12;101948.16;;;22.59;55.57
14882;BME280;7533;51.278;12.588;2023-02-12T00:42:15;101950.84;;;22.59;55.66
14882;BME280;7533;51.278;12.588;2023-02-12T00:47:20;101957.88;;;22.63;55.53
14882;BME280;7533;51.278;12.588;2023-02-12T00:52:23;101963.19;;;22.65;55.65
14882;BME280;7533;51.278;12.588;2023-02-12T00:57:26;101964.91;;;22.66;55.66
14882;BME280;7533;51.278;12.588;2023-02-12T01:02:31;101971.19;;;22.66;55.63
14882;BME280;7533;51.278;12.588;2023-02-12T01:07:34;101974.19;;;22.60;55.68
14882;BME280;7533;51.278;12.588;2023-02-12T01:12:39;101972.16;;;22.47;55.88
14882;BME280;7533;51.278;12.588;2023-02-12T01:17:43;101980.69;;;22.56;55.74
14882;BME280;7533;51.278;12.588;2023-02-12T01:22:47;101978.03;;;22.55;55.93
14882;BME280;7533;51.278;12.588;2023-02-12T01:27:52;101970.81;;;22.55;55.94
14882;BME280;7533;51.278;12.588;2023-02-12T01:32:56;101968.78;;;22.41;56.11
14882;BME280;7533;51.278;12.588;2023-02-12T01:38:01;101983.44;;;22.55;56.14
14882;BME280;7533;51.278;12.588;2023-02-12T01:43:05;101983.03;;;22.45;56.23
14882;BME280;7533;51.278;12.588;2023-02-12T01:48:10;101977.09;;;22.56;56.01
14882;BME280;7533;51.278;12.588;2023-02-12T01:53:14;101983.41;;;22.56;56.16
14882;BME280;7533;51.278;12.588;2023-02-12T01:58:23;101975.44;;;22.53;56.20
14882;BME280;7533;51.278;12.588;2023-02-12T02:03:28;101980.91;;;22.52;56.33
14882;BME280;7533;51.278;12.588;2023-02-12T02:08:31;101970.81;;;22.55;56.14
14882;BME280;7533;51.278;12.588;2023-02-12T02:13:35;101971.94;;;22.51;56.37
14882;BME280;7533;51.278;12.588;2023-02-12T02:19:01;101969.78;;;22.39;56.51
14882;BME280;7533;51.278;12.588;2023-02-12T02:24:31;101971.50;;;22.41;56.39
14882;BME280;7533;51.278;12.588;2023-02-12T02:29:45;101960.81;;;22.38;56.67
14882;BME280;7533;51.278;12.588;2023-02-12T02:34:56;101964.69;;;22.33;56.56
14882;BME280;7533;51.278;12.588;2023-02-12T02:40:08;101970.25;;;22.30;56.65
14882;BME280;7533;51.278;12.588;2023-02-12T02:45:15;101970.53;;;22.24;56.83
14882;BME280;7533;51.278;12.588;2023-02-12T02:50:24;101968.81;;;22.21;56.84
14882;BME280;7533;51.278;12.588;2023-02-12T02:55:34;101958.31;;;22.15;56.91
14882;BME280;7533;51.278;12.588;2023-02-12T03:00:42;101970.72;;;22.19;56.94
14882;BME280;7533;51.278;12.588;2023-02-12T03:05:49;101976.91;;;22.21;56.93
14882;BME280;7533;51.278;12.588;2023-02-12T03:10:57;101975.03;;;22.23;56.89
14882;BME280;7533;51.278;12.588;2023-02-12T03:16:04;101980.38;;;22.25;56.80
14882;BME280;7533;51.278;12.588;2023-02-12T03:21:15;101991.34;;;22.20;56.78
14882;BME280;7533;51.278;12.588;2023-02-12T03:26:23;102000.69;;;22.13;57.03
14882;BME280;7533;51.278;12.588;2023-02-12T03:31:32;102011.59;;;22.10;57.09
14882;BME280;7533;51.278;12.588;2023-02-12T03:36:45;102015.41;;;22.04;57.46
14882;BME280;7533;51.278;12.588;2023-02-12T03:42:00;102021.94;;;21.99;57.56
14882;BME280;7533;51.278;12.588;2023-02-12T03:47:10;102018.53;;;21.95;57.50
14882;BME280;7533;51.278;12.588;2023-02-12T03:52:19;102020.53;;;21.90;57.90
14882;BME280;7533;51.278;12.588;2023-02-12T03:57:24;102034.22;;;21.85;57.90
14882;BME280;7533;51.278;12.588;2023-02-12T04:02:31;102040.75;;;21.80;58.02
14882;BME280;7533;51.278;12.588;2023-02-12T04:07:35;102043.53;;;21.78;58.16
14882;BME280;7533;51.278;12.588;2023-02-12T04:12:39;102051.78;;;21.74;58.14
14882;BME280;7533;51.278;12.588;2023-02-12T04:17:49;102061.88;;;21.69;58.33
14882;BME280;7533;51.278;12.588;2023-02-12T04:23:08;102053.13;;;21.63;58.43
14882;BME280;7533;51.278;12.588;2023-02-12T04:28:24;102059.56;;;21.59;58.63
14882;BME280;7533;51.278;12.588;2023-02-12T04:33:34;102059.91;;;21.52;58.85
14882;BME280;7533;51.278;12.588;2023-02-12T04:38:47;102064.59;;;21.47;59.10
14882;BME280;7533;51.278;12.588;2023-02-12T04:43:53;102068.41;;;21.41;59.17
14882;BME280;7533;51.278;12.588;2023-02-12T04:48:57;102067.72;;;21.36;59.21
14882;BME280;7533;51.278;12.588;2023-02-12T04:54:01;102076.84;;;21.32;59.47
14882;BME280;7533;51.278;12.588;2023-02-12T04:59:05;102080.59;;;21.28;59.57
14882;BME280;7533;51.278;12.588;2023-02-12T05:04:09;102083.47;;;21.23;59.63
14882;BME280;7533;51.278;12.588;2023-02-12T05:09:16;102079.06;;;21.21;59.95
14882;BME280;7533;51.278;12.588;2023-02-12T05:14:19;102078.34;;;21.17;59.91
14882;BME280;7533;51.278;12.588;2023-02-12T05:19:25;102082.09;;;21.13;60.14
14882;BME280;7533;51.278;12.588;2023-02-12T05:24:29;102081.31;;;21.09;60.08
14882;BME280;7533;51.278;12.588;2023-02-12T05:29:32;102077.88;;;21.06;60.47
14882;BME280;7533;51.278;12.588;2023-02-12T05:34:35;102081.56;;;21.03;60.40
14882;BME280;7533;51.278;12.588;2023-02-12T05:39:40;102078.06;;;21.01;60.48
14882;BME280;7533;51.278;12.588;2023-02-12T05:44:43;102081.78;;;20.97;60.57
14882;BME280;7533;51.278;12.588;2023-02-12T05:49:46;102084.63;;;20.94;60.49
14882;BME280;7533;51.278;12.588;2023-02-12T05:54:50;102095.41;;;20.94;60.72
14882;BME280;7533;51.278;12.588;2023-02-12T05:59:53;102092.81;;;20.91;60.85
14882;BME280;7533;51.278;12.588;2023-02-12T06:04:56;102100.13;;;20.88;60.86
14882;BME280;7533;51.278;12.588;2023-02-12T06:10:00;102110.94;;;20.86;60.82
14882;BME280;7533;51.278;12.588;2023-02-12T06:15:03;102103.88;;;20.83;61.09
14882;BME280;7533;51.278;12.588;2023-02-12T06:20:06;102112.03;;;20.80;61.00
14882;BME280;7533;51.278;12.588;2023-02-12T06:25:10;102119.25;;;20.80;61.19
14882;BME280;7533;51.278;12.588;2023-02-12T06:30:14;102119.31;;;20.78;61.24
14882;BME280;7533;51.278;12.588;2023-02-12T06:35:17;102126.63;;;20.75;61.34
14882;BME280;7533;51.278;12.588;2023-02-12T06:40:21;102140.13;;;20.73;61.38
14882;BME280;7533;51.278;12.588;2023-02-12T06:45:24;102145.56;;;20.72;61.61
14882;BME280;7533;51.278;12.588;2023-02-12T06:50:29;102143.00;;;20.69;61.74
14882;BME280;7533;51.278;12.588;2023-02-12T06:55:33;102150.25;;;20.67;61.87
14882;BME280;7533;51.278;12.588;2023-02-12T07:00:36;102150.31;;;20.65;61.81
14882;BME280;7533;51.278;12.588;2023-02-12T07:05:39;102160.16;;;20.65;62.00
14882;BME280;7533;51.278;12.588;2023-02-12T07:10:47;102166.56;;;20.62;62.05
14882;BME280;7533;51.278;12.588;2023-02-12T07:15:50;102173.81;;;20.60;62.11
14882;BME280;7533;51.278;12.588;2023-02-12T07:20:55;102176.53;;;20.58;62.14
14882;BME280;7533;51.278;12.588;2023-02-12T07:26:01;102187.34;;;20.57;62.03
14882;BME280;7533;51.278;12.588;2023-02-12T07:31:08;102176.66;;;20.55;62.17
14882;BME280;7533;51.278;12.588;2023-02-12T07:36:13;102183.78;;;20.56;62.14
14882;BME280;7533;51.278;12.588;2023-02-12T07:41:19;102191.06;;;20.54;62.50
14882;BME280;7533;51.278;12.588;2023-02-12T07:46:25;102195.56;;;20.54;62.52
14882;BME280;7533;51.278;12.588;2023-02-12T07:51:30;102197.47;;;20.50;62.48
14882;BME280;7533;51.278;12.588;2023-02-12T07:56:37;102209.09;;;20.51;62.68
14882;BME280;7533;51.278;12.588;2023-02-12T08:01:42;102210.03;;;20.50;62.58
14882;BME280;7533;51.278;12.588;2023-02-12T08:06:46;102207.22;;;20.26;58.02
14882;BME280;7533;51.278;12.588;2023-02-12T08:11:51;102224.19;;;16.34;60.65
14882;BME280;7533;51.278;12.588;2023-02-12T08:16:54;102233.41;;;15.52;63.09
14882;BME280;7533;51.278;12.588;2023-02-12T08:21:57;102237.31;;;15.91;62.75
14882;BME280;7533;51.278;12.588;2023-02-12T08:27:01;102225.38;;;18.33;58.74
14882;BME280;7533;51.278;12.588;2023-02-12T08:32:04;102225.19;;;19.09;58.08
14882;BME280;7533;51.278;12.588;2023-02-12T08:37:11;102223.25;;;19.44;58.02
14882;BME280;7533;51.278;12.588;2023-02-12T08:42:15;102238.63;;;19.70;58.15
14882;BME280;7533;51.278;12.588;2023-02-12T08:47:18;102234.38;;;19.91;58.42
14882;BME280;7533;51.278;12.588;2023-02-12T08:52:20;102229.53;;;20.02;59.14
14882;BME280;7533;51.278;12.588;2023-02-12T08:57:25;102230.06;;;20.13;59.41
14882;BME280;7533;51.278;12.588;2023-02-12T09:02:27;102239.53;;;20.25;59.68
14882;BME280;7533;51.278;12.588;2023-02-12T09:07:30;102239.16;;;20.35;59.78
14882;BME280;7533;51.278;12.588;2023-02-12T09:12:35;102246.03;;;20.46;59.95
14882;BME280;7533;51.278;12.588;2023-02-12T09:17:37;102243.97;;;20.54;59.89
14882;BME280;7533;51.278;12.588;2023-02-12T09:22:42;102253.59;;;20.61;59.97
14882;BME280;7533;51.278;12.588;2023-02-12T09:27:46;102254.25;;;20.68;59.62
14882;BME280;7533;51.278;12.588;2023-02-12T09:32:48;102268.44;;;20.73;59.69
14882;BME280;7533;51.278;12.588;2023-02-12T09:37:52;102263.84;;;20.76;59.66
14882;BME280;7533;51.278;12.588;2023-02-12T09:43:03;102266.34;;;20.81;59.60
14882;BME280;7533;51.278;12.588;2023-02-12T09:48:28;102275.09;;;20.88;59.67
14882;BME280;7533;51.278;12.588;2023-02-12T09:53:35;102281.22;;;20.91;59.76
14882;BME280;7533;51.278;12.588;2023-02-12T09:58:45;102282.88;;;20.95;59.81
14882;BME280;7533;51.278;12.588;2023-02-12T10:03:50;102290.81;;;21.00;59.74
14882;BME280;7533;51.278;12.588;2023-02-12T10:09:18;102286.19;;;21.03;59.71
14882;BME280;7533;51.278;12.588;2023-02-12T10:14:56;102292.41;;;21.05;59.58
14882;BME280;7533;51.278;12.588;2023-02-12T10:20:20;102285.06;;;21.09;59.67
14882;BME280;7533;51.278;12.588;2023-02-12T10:25:29;102292.22;;;21.10;59.85
14882;BME280;7533;51.278;12.588;2023-02-12T10:30:43;102294.75;;;21.14;60.12
14882;BME280;7533;51.278;12.588;2023-02-12T10:35:54;102287.38;;;21.20;60.06
14882;BME280;7533;51.278;12.588;2023-02-12T10:40:59;102292.69;;;21.23;59.84
14882;BME280;7533;51.278;12.588;2023-02-12T10:46:04;102289.03;;;21.24;59.90
14882;BME280;7533;51.278;12.588;2023-02-12T10:51:23;102281.75;;;21.27;60.29
14882;BME280;7533;51.278;12.588;2023-02-12T10:56:31;102278.00;;;21.31;60.05
14882;BME280;7533;51.278;12.588;2023-02-12T11:01:37;102277.06;;;21.32;60.18
14882;BME280;7533;51.278;12.588;2023-02-12T11:06:56;102283.22;;;21.36;59.95
14882;BME280;7533;51.278;12.588;2023-02-12T11:11:59;102280.53;;;21.36;59.95
14882;BME280;7533;51.278;12.588;2023-02-12T11:17:03;102272.34;;;21.39;60.28
14882;BME280;7533;51.278;12.588;2023-02-12T11:22:09;102266.84;;;21.42;60.09
14882;BME280;7533;51.278;12.588;2023-02-12T11:27:22;102267.72;;;21.43;60.15
14882;BME280;7533;51.278;12.588;2023-02-12T11:32:27;102271.28;;;21.43;60.09
14882;BME280;7533;51.278;12.588;2023-02-12T11:37:32;102275.69;;;21.46;60.13
14882;BME280;7533;51.278;12.588;2023-02-12T11:42:37;102269.19;;;21.51;60.17
14882;BME280;7533;51.278;12.588;2023-02-12T11:47:43;102274.34;;;21.57;60.46
14882;BME280;7533;51.278;12.588;2023-02-12T11:52:48;102268.94;;;21.57;60.87
14882;BME280;7533;51.278;12.588;2023-02-12T11:57:54;102260.88;;;21.57;61.16
14882;BME280;7533;51.278;12.588;2023-02-12T12:03:12;102255.47;;;21.57;61.27
14882;BME280;7533;51.278;12.588;2023-02-12T12:08:21;102262.63;;;21.58;61.14
14882;BME280;7533;51.278;12.588;2023-02-12T12:13:31;102266.25;;;21.57;61.17
14882;BME280;7533;51.278;12.588;2023-02-12T12:18:44;102259.94;;;21.58;61.03
14882;BME280;7533;51.278;12.588;2023-02-12T12:24:10;102266.09;;;21.62;60.83
14882;BME280;7533;51.278;12.588;2023-02-12T12:29:21;102262.38;;;21.64;60.74
14882;BME280;7533;51.278;12.588;2023-02-12T12:34:27;102260.56;;;21.65;60.67
14882;BME280;7533;51.278;12.588;2023-02-12T12:39:35;102254.13;;;21.69;60.66
14882;BME280;7533;51.278;12.588;2023-02-12T12:44:49;102255.88;;;21.70;60.70
14882;BME280;7533;51.278;12.588;2023-02-12T12:50:19;102252.22;;;21.71;60.54
14882;BME280;7533;51.278;12.588;2023-02-12T13:01:13;102248.56;;;21.74;60.91
14882;BME280;7533;51.278;12.588;2023-02-12T13:06:35;102235.09;;;21.74;60.70
14882;BME280;7533;51.278;12.588;2023-02-12T13:11:49;102227.78;;;21.76;60.71
14882;BME280;7533;51.278;12.588;2023-02-12T13:17:03;102233.13;;;21.77;60.90
14882;BME280;7533;51.278;12.588;2023-02-12T13:22:17;102232.06;;;21.81;60.91
14882;BME280;7533;51.278;12.588;2023-02-12T13:27:30;102233.81;;;21.82;60.93
14882;BME280;7533;51.278;12.588;2023-02-12T13:32:37;102232.84;;;21.85;60.90
14882;BME280;7533;51.278;12.588;2023-02-12T13:37:47;102239.09;;;21.85;61.00
14882;BME280;7533;51.278;12.588;2023-02-12T13:42:55;102237.28;;;21.86;61.01
14882;BME280;7533;51.278;12.588;2023-02-12T13:48:15;102239.91;;;21.87;61.18
14882;BME280;7533;51.278;12.588;2023-02-12T13:53:28;102236.25;;;21.88;61.23
14882;BME280;7533;51.278;12.588;2023-02-12T13:58:49;102238.97;;;21.88;61.33
14882;BME280;7533;51.278;12.588;2023-02-12T14:03:52;102237.09;;;21.90;61.45
14882;BME280;7533;51.278;12.588;2023-02-12T14:09:08;102235.22;;;21.92;61.50
14882;BME280;7533;51.278;12.588;2023-02-12T14:14:11;102232.50;;;21.92;61.54
14882;BME280;7533;51.278;12.588;2023-02-12T14:19:36;102244.13;;;21.95;61.35
14882;BME280;7533;51.278;12.588;2023-02-12T14:24:47;102239.63;;;21.95;61.64
14882;BME280;7533;51.278;12.588;2023-02-12T14:35:32;102236.72;;;22.00;61.48
14882;BME280;7533;51.278;12.588;2023-02-12T14:40:39;102233.13;;;21.99;61.69
14882;BME280;7533;51.278;12.588;2023-02-12T14:45:43;102228.63;;;22.00;61.76
14882;BME280;7533;51.278;12.588;2023-02-12T14:50:46;102242.31;;;21.95;61.88
14882;BME280;7533;51.278;12.588;2023-02-12T14:55:54;102242.31;;;21.95;61.81
14882;BME280;7533;51.278;12.588;2023-02-12T15:01:00;102238.84;;;21.91;61.87
14882;BME280;7533;51.278;12.588;2023-02-12T15:06:10;102237.97;;;21.91;61.96
14882;BME280;7533;51.278;12.588;2023-02-12T15:11:29;102239.63;;;21.95;61.92
14882;BME280;7533;51.278;12.588;2023-02-12T15:16:44;102252.16;;;21.96;61.86
14882;BME280;7533;51.278;12.588;2023-02-12T15:21:52;102248.63;;;21.94;61.59
14882;BME280;7533;51.278;12.588;2023-02-12T15:26:58;102253.13;;;21.93;61.11
14882;BME280;7533;51.278;12.588;2023-02-12T15:32:05;102243.28;;;21.92;61.37
14882;BME280;7533;51.278;12.588;2023-02-12T15:37:08;102248.63;;;21.94;61.29
14882;BME280;7533;51.278;12.588;2023-02-12T15:42:29;102245.94;;;21.94;61.07
14882;BME280;7533;51.278;12.588;2023-02-12T15:47:32;102254.00;;;21.94;61.01
14882;BME280;7533;51.278;12.588;2023-02-12T15:52:37;102254.09;;;21.92;61.13
14882;BME280;7533;51.278;12.588;2023-02-12T15:57:43;102255.84;;;21.93;60.98
14882;BME280;7533;51.278;12.588;2023-02-12T16:02:50;102255.84;;;21.93;61.02
14882;BME280;7533;51.278;12.588;2023-02-12T16:07:54;102257.66;;;21.93;60.91
14882;BME280;7533;51.278;12.588;2023-02-12T16:12:59;102261.28;;;21.92;60.90
14882;BME280;7533;51.278;12.588;2023-02-12T16:18:03;102265.75;;;21.93;60.94
14882;BME280;7533;51.278;12.588;2023-02-12T16:23:07;102266.63;;;21.93;60.84
14882;BME280;7533;51.278;12.588;2023-02-12T16:28:18;102271.91;;;21.97;60.90
14882;BME280;7533;51.278;12.588;2023-02-12T16:33:38;102274.66;;;21.95;60.88
14882;BME280;7533;51.278;12.588;2023-02-12T16:38:45;102283.63;;;21.96;60.97
14882;BME280;7533;51.278;12.588;2023-02-12T16:44:19;102280.00;;;21.97;60.70
14882;BME280;7533;51.278;12.588;2023-02-12T16:49:16;102281.69;;;21.99;60.97
14882;BME280;7533;51.278;12.588;2023-02-12T16:54:28;102286.97;;;22.02;60.83
14882;BME280;7533;51.278;12.588;2023-02-12T16:59:32;102286.09;;;22.02;60.80
14882;BME280;7533;51.278;12.588;2023-02-12T17:04:37;102297.75;;;22.02;60.97
14882;BME280;7533;51.278;12.588;2023-02-12T17:09:40;102295.06;;;22.02;60.96
14882;BME280;7533;51.278;12.588;2023-02-12T17:14:43;102294.25;;;22.00;60.96
14882;BME280;7533;51.278;12.588;2023-02-12T17:19:47;102295.28;;;21.96;61.13
14882;BME280;7533;51.278;12.588;2023-02-12T17:24:50;102289.06;;;21.94;61.17
14882;BME280;7533;51.278;12.588;2023-02-12T17:29:53;102297.22;;;21.92;61.09
14882;BME280;7533;51.278;12.588;2023-02-12T17:34:57;102301.88;;;21.89;61.15
14882;BME280;7533;51.278;12.588;2023-02-12T17:40:00;102303.81;;;21.85;61.34
14882;BME280;7533;51.278;12.588;2023-02-12T17:45:04;102303.91;;;21.82;61.43
14882;BME280;7533;51.278;12.588;2023-02-12T17:50:10;102307.63;;;21.80;61.46
14882;BME280;7533;51.278;12.588;2023-02-12T17:55:13;102315.81;;;21.77;61.36
14882;BME280;7533;51.278;12.588;2023-02-12T18:00:18;102303.34;;;21.74;61.49
14882;BME280;7533;51.278;12.588;2023-02-12T18:05:23;102302.53;;;21.72;61.48
14882;BME280;7533;51.278;12.588;2023-02-12T18:10:26;102312.53;;;21.69;61.65
14882;BME280;7533;51.278;12.588;2023-02-12T18:15:29;102314.44;;;21.67;61.45
14882;BME280;7533;51.278;12.588;2023-02-12T18:20:33;102312.78;;;21.62;61.52
14882;BME280;7533;51.278;12.588;2023-02-12T18:25:39;102313.75;;;21.60;61.37
14882;BME280;7533;51.278;12.588;2023-02-12T18:30:42;102306.69;;;21.57;61.29
14882;BME280;7533;51.278;12.588;2023-02-12T18:35:57;102306.75;;;21.56;61.35
14882;BME280;7533;51.278;12.588;2023-02-12T18:41:05;102294.31;;;21.52;61.46
14882;BME280;7533;51.278;12.588;2023-02-12T18:46:09;102295.25;;;21.51;61.30
14882;BME280;7533;51.278;12.588;2023-02-12T18:51:15;102294.16;;;21.56;61.17
14882;BME280;7533;51.278;12.588;2023-02-12T18:56:19;102290.28;;;21.63;60.82
14882;BME280;7533;51.278;12.588;2023-02-12T19:01:22;102297.16;;;21.72;60.76
14882;BME280;7533;51.278;12.588;2023-02-12T19:06:28;102291.44;;;21.80;60.62
14882;BME280;7533;51.278;12.588;2023-02-12T19:11:32;102286.75;;;21.85;60.21
14882;BME280;7533;51.278;12.588;2023-02-12T19:16:35;102296.28;;;21.93;60.17
14882;BME280;7533;51.278;12.588;2023-02-12T19:21:40;102296.97;;;21.99;59.95
14882;BME280;7533;51.278;12.588;2023-02-12T19:26:43;102296.88;;;22.02;60.00
14882;BME280;7533;51.278;12.588;2023-02-12T19:31:46;102289.50;;;22.05;60.10
14882;BME280;7533;51.278;12.588;2023-02-12T19:36:51;102301.22;;;22.06;60.34
14882;BME280;7533;51.278;12.588;2023-02-12T19:41:54;102307.47;;;22.06;60.46
14882;BME280;7533;51.278;12.588;2023-02-12T19:46:57;102308.25;;;22.10;60.32
14882;BME280;7533;51.278;12.588;2023-02-12T19:52:02;102288.41;;;22.11;60.25
14882;BME280;7533;51.278;12.588;2023-02-12T19:57:05;102298.09;;;22.16;60.29
14882;BME280;7533;51.278;12.588;2023-02-12T20:02:09;102300.84;;;22.15;60.08
14882;BME280;7533;51.278;12.588;2023-02-12T20:07:14;102294.22;;;22.24;60.01
14882;BME280;7533;51.278;12.588;2023-02-12T20:12:16;102291.44;;;22.25;59.79
14882;BME280;7533;51.278;12.588;2023-02-12T20:17:19;102302.06;;;22.30;59.63
14882;BME280;7533;51.278;12.588;2023-02-12T20:22:23;102297.28;;;22.36;59.50
14882;BME280;7533;51.278;12.588;2023-02-12T20:27:26;102291.81;;;22.38;59.33
14882;BME280;7533;51.278;12.588;2023-02-12T20:32:29;102297.09;;;22.41;59.51
14882;BME280;7533;51.278;12.588;2023-02-12T20:37:36;102294.16;;;22.47;58.97
14882;BME280;7533;51.278;12.588;2023-02-12T20:42:39;102291.31;;;22.50;58.97
14882;BME280;7533;51.278;12.588;2023-02-12T20:47:42;102300.16;;;22.54;58.92
14882;BME280;7533;51.278;12.588;2023-02-12T20:52:46;102301.88;;;22.56;58.92
14882;BME280;7533;51.278;12.588;2023-02-12T20:57:49;102297.09;;;22.63;58.53
14882;BME280;7533;51.278;12.588;2023-02-12T21:02:52;102296.22;;;22.62;58.51
14882;BME280;7533;51.278;12.588;2023-02-12T21:07:57;102303.03;;;22.49;58.61
14882;BME280;7533;51.278;12.588;2023-02-12T21:13:00;102297.34;;;22.57;58.22
14882;BME280;7533;51.278;12.588;2023-02-12T21:18:03;102300.59;;;22.65;58.37
14882;BME280;7533;51.278;12.588;2023-02-12T21:23:07;102291.41;;;22.69;58.21
14882;BME280;7533;51.278;12.588;2023-02-12T21:28:10;102298.09;;;22.38;58.97
14882;BME280;7533;51.278;12.588;2023-02-12T21:33:13;102297.00;;;22.64;58.44
14882;BME280;7533;51.278;12.588;2023-02-12T21:38:17;102303.44;;;22.62;58.96
14882;BME280;7533;51.278;12.588;2023-02-12T21:43:20;102305.63;;;22.52;59.11
14882;BME280;7533;51.278;12.588;2023-02-12T21:48:22;102299.91;;;22.60;59.07
14882;BME280;7533;51.278;12.588;2023-02-12T21:53:27;102289.25;;;22.57;59.07
14882;BME280;7533;51.278;12.588;2023-02-12T21:58:30;102296.69;;;22.50;59.30
14882;BME280;7533;51.278;12.588;2023-02-12T22:03:33;102290.59;;;22.67;58.99
14882;BME280;7533;51.278;12.588;2023-02-12T22:08:38;102297.28;;;22.58;59.14
14882;BME280;7533;51.278;12.588;2023-02-12T22:13:41;102293.63;;;22.59;59.26
14882;BME280;7533;51.278;12.588;2023-02-12T22:18:44;102307.38;;;22.53;59.42
14882;BME280;7533;51.278;12.588;2023-02-12T22:23:49;102296.97;;;22.44;59.54
14882;BME280;7533;51.278;12.588;2023-02-12T22:28:54;102304.75;;;22.52;59.59
14882;BME280;7533;51.278;12.588;2023-02-12T22:33:59;102301.97;;;22.53;59.63
14882;BME280;7533;51.278;12.588;2023-02-12T22:39:04;102310.25;;;22.49;59.72
14882;BME280;7533;51.278;12.588;2023-02-12T22:44:08;102316.28;;;22.55;59.49
14882;BME280;7533;51.278;12.588;2023-02-12T22:49:12;102308.41;;;22.51;59.80
14882;BME280;7533;51.278;12.588;2023-02-12T22:54:17;102312.28;;;22.43;59.86
14882;BME280;7533;51.278;12.588;2023-02-12T22:59:20;102319.31;;;22.48;59.69
14882;BME280;7533;51.278;12.588;2023-02-12T23:04:23;102315.56;;;22.52;59.84
14882;BME280;7533;51.278;12.588;2023-02-12T23:09:28;102318.69;;;22.41;59.89
14882;BME280;7533;51.278;12.588;2023-02-12T23:14:30;102312.44;;;22.61;59.37
14882;BME280;7533;51.278;12.588;2023-02-12T23:19:34;102320.81;;;22.55;59.48
14882;BME280;7533;51.278;12.588;2023-02-12T23:24:38;102314.50;;;22.34;60.10
14882;BME280;7533;51.278;12.588;2023-02-12T23:29:41;102315.41;;;22.33;59.97
14882;BME280;7533;51.278;12.588;2023-02-12T23:34:44;102311.78;;;22.34;60.09
14882;BME280;7533;51.278;12.588;2023-02-12T23:39:49;102304.25;;;22.42;59.95
14882;BME280;7533;51.278;12.588;2023-02-12T23:44:52;102307.72;;;22.46;59.94
14882;BME280;7533;51.278;12.588;2023-02-12T23:49:57;102308.16;;;22.35;59.89
14882;BME280;7533;51.278;12.588;2023-02-12T23:55:01;102310.00;;;22.33;60.20
